sensor_id;sensor_type;location;lat;lon;timestamp;P1;durP1;ratioP1;P2;durP2;ratioP2
17854;SDS011;9053;53.358;6.382;2022-10-17T00:02:07;8.53;;;4.73;;
17854;SDS011;9053;53.358;6.382;2022-10-17T00:04:36;9.23;;;4.38;;
17854;SDS011;9053;53.358;6.382;2022-10-17T00:07:06;11.13;;;5.93;;
17854;SDS011;9053;53.358;6.382;2022-10-17T00:09:38;8.27;;;4.70;;
17854;SDS011;9053;53.358;6.382;2022-10-17T00:12:10;6.67;;;4.30;;
17854;SDS011;9053;53.358;6.382;2022-10-17T00:14:40;5.63;;;4.30;;
17854;SDS011;9053;53.358;6.382;2022-10-17T00:17:10;7.63;;;4.37;;
17854;SDS011;9053;53.358;6.382;2022-10-17T00:19:40;9.90;;;4.60;;
17854;SDS011;9053;53.358;6.382;2022-10-17T00:22:11;8.88;;;4.60;;
17854;SDS011;9053;53.358;6.382;2022-10-17T00:24:44;8.10;;;4.47;;
17854;SDS011;9053;53.358;6.382;2022-10-17T00:27:13;8.37;;;4.20;;
17854;SDS011;9053;53.358;6.382;2022-10-17T00:29:46;7.53;;;3.95;;
17854;SDS011;9053;53.358;6.382;2022-10-17T00:32:17;5.77;;;3.97;;
17854;SDS011;9053;53.358;6.382;2022-10-17T00:34:47;6.95;;;4.10;;
17854;SDS011;9053;53.358;6.382;2022-10-17T00:37:16;11.57;;;7.18;;
17854;SDS011;9053;53.358;6.382;2022-10-17T00:39:49;11.63;;;8.75;;
17854;SDS011;9053;53.358;6.382;2022-10-17T00:42:19;17.97;;;9.97;;
17854;SDS011;9053;53.358;6.382;2022-10-17T00:44:59;17.02;;;10.90;;
17854;SDS011;9053;53.358;6.382;2022-10-17T00:47:34;14.88;;;9.25;;
17854;SDS011;9053;53.358;6.382;2022-10-17T00:50:05;15.27;;;8.93;;
17854;SDS011;9053;53.358;6.382;2022-10-17T00:52:35;14.98;;;8.43;;
17854;SDS011;9053;53.358;6.382;2022-10-17T00:55:11;10.40;;;7.23;;
17854;SDS011;9053;53.358;6.382;2022-10-17T00:57:42;13.53;;;6.87;;
17854;SDS011;9053;53.358;6.382;2022-10-17T01:00:14;10.10;;;5.70;;
17854;SDS011;9053;53.358;6.382;2022-10-17T01:02:45;9.63;;;5.03;;
17854;SDS011;9053;53.358;6.382;2022-10-17T01:05:15;7.50;;;4.97;;
17854;SDS011;9053;53.358;6.382;2022-10-17T01:07:46;5.83;;;3.93;;
17854;SDS011;9053;53.358;6.382;2022-10-17T01:10:21;9.20;;;4.70;;
17854;SDS011;9053;53.358;6.382;2022-10-17T01:13:00;6.65;;;3.80;;
17854;SDS011;9053;53.358;6.382;2022-10-17T01:15:45;10.37;;;4.40;;
17854;SDS011;9053;53.358;6.382;2022-10-17T01:18:27;12.63;;;5.23;;
17854;SDS011;9053;53.358;6.382;2022-10-17T01:33:25;8.63;;;5.10;;
17854;SDS011;9053;53.358;6.382;2022-10-17T01:36:02;8.55;;;4.40;;
17854;SDS011;9053;53.358;6.382;2022-10-17T01:38:41;9.57;;;4.40;;
17854;SDS011;9053;53.358;6.382;2022-10-17T01:41:19;9.05;;;4.82;;
17854;SDS011;9053;53.358;6.382;2022-10-17T01:43:57;8.00;;;4.40;;
17854;SDS011;9053;53.358;6.382;2022-10-17T01:46:31;7.83;;;4.50;;
17854;SDS011;9053;53.358;6.382;2022-10-17T01:49:07;10.02;;;5.28;;
17854;SDS011;9053;53.358;6.382;2022-10-17T01:51:40;9.93;;;5.03;;
17854;SDS011;9053;53.358;6.382;2022-10-17T01:54:15;12.57;;;5.40;;
17854;SDS011;9053;53.358;6.382;2022-10-17T01:56:50;8.73;;;5.17;;
17854;SDS011;9053;53.358;6.382;2022-10-17T01:59:25;8.23;;;4.87;;
17854;SDS011;9053;53.358;6.382;2022-10-17T02:02:00;10.17;;;5.40;;
17854;SDS011;9053;53.358;6.382;2022-10-17T02:04:33;7.32;;;4.78;;
17854;SDS011;9053;53.358;6.382;2022-10-17T02:07:06;6.80;;;4.50;;
17854;SDS011;9053;53.358;6.382;2022-10-17T02:09:37;8.38;;;5.00;;
17854;SDS011;9053;53.358;6.382;2022-10-17T02:12:14;8.40;;;4.80;;
17854;SDS011;9053;53.358;6.382;2022-10-17T02:15:13;8.43;;;4.77;;
17854;SDS011;9053;53.358;6.382;2022-10-17T02:17:59;8.13;;;5.40;;
17854;SDS011;9053;53.358;6.382;2022-10-17T02:20:43;7.63;;;5.00;;
17854;SDS011;9053;53.358;6.382;2022-10-17T02:23:23;9.67;;;5.73;;
17854;SDS011;9053;53.358;6.382;2022-10-17T02:26:03;7.45;;;5.68;;
17854;SDS011;9053;53.358;6.382;2022-10-17T02:28:38;7.23;;;4.73;;
17854;SDS011;9053;53.358;6.382;2022-10-17T02:31:14;9.90;;;5.60;;
17854;SDS011;9053;53.358;6.382;2022-10-17T02:33:46;6.93;;;5.43;;
17854;SDS011;9053;53.358;6.382;2022-10-17T02:36:22;10.33;;;6.50;;
17854;SDS011;9053;53.358;6.382;2022-10-17T02:38:57;5.53;;;4.57;;
17854;SDS011;9053;53.358;6.382;2022-10-17T02:41:30;8.93;;;5.20;;
17854;SDS011;9053;53.358;6.382;2022-10-17T02:44:01;6.90;;;5.57;;
17854;SDS011;9053;53.358;6.382;2022-10-17T02:46:33;6.73;;;4.90;;
17854;SDS011;9053;53.358;6.382;2022-10-17T02:49:07;8.90;;;6.07;;
17854;SDS011;9053;53.358;6.382;2022-10-17T02:51:48;7.73;;;5.03;;
17854;SDS011;9053;53.358;6.382;2022-10-17T02:54:26;7.83;;;5.60;;
17854;SDS011;9053;53.358;6.382;2022-10-17T02:57:04;6.87;;;5.30;;
17854;SDS011;9053;53.358;6.382;2022-10-17T02:59:39;12.17;;;6.17;;
17854;SDS011;9053;53.358;6.382;2022-10-17T03:02:12;9.73;;;6.00;;
17854;SDS011;9053;53.358;6.382;2022-10-17T03:04:42;8.13;;;5.43;;
17854;SDS011;9053;53.358;6.382;2022-10-17T03:07:14;6.43;;;5.47;;
17854;SDS011;9053;53.358;6.382;2022-10-17T03:09:44;8.57;;;5.73;;
17854;SDS011;9053;53.358;6.382;2022-10-17T03:12:14;7.80;;;5.93;;
17854;SDS011;9053;53.358;6.382;2022-10-17T03:14:44;11.27;;;6.40;;
17854;SDS011;9053;53.358;6.382;2022-10-17T03:17:13;11.27;;;5.97;;
17854;SDS011;9053;53.358;6.382;2022-10-17T03:19:43;6.97;;;6.10;;
17854;SDS011;9053;53.358;6.382;2022-10-17T03:22:16;9.32;;;6.85;;
17854;SDS011;9053;53.358;6.382;2022-10-17T03:24:45;11.20;;;7.10;;
17854;SDS011;9053;53.358;6.382;2022-10-17T03:27:15;7.73;;;6.27;;
17854;SDS011;9053;53.358;6.382;2022-10-17T03:29:45;8.57;;;6.77;;
17854;SDS011;9053;53.358;6.382;2022-10-17T03:32:15;11.17;;;6.33;;
17854;SDS011;9053;53.358;6.382;2022-10-17T03:34:44;10.80;;;8.10;;
17854;SDS011;9053;53.358;6.382;2022-10-17T03:37:17;11.10;;;7.10;;
17854;SDS011;9053;53.358;6.382;2022-10-17T03:39:46;8.05;;;6.80;;
17854;SDS011;9053;53.358;6.382;2022-10-17T03:42:16;7.10;;;6.40;;
17854;SDS011;9053;53.358;6.382;2022-10-17T03:44:46;7.78;;;6.90;;
17854;SDS011;9053;53.358;6.382;2022-10-17T03:47:16;8.63;;;6.87;;
17854;SDS011;9053;53.358;6.382;2022-10-17T03:49:46;8.77;;;7.10;;
17854;SDS011;9053;53.358;6.382;2022-10-17T03:52:18;9.67;;;8.03;;
17854;SDS011;9053;53.358;6.382;2022-10-17T03:54:48;7.73;;;6.70;;
17854;SDS011;9053;53.358;6.382;2022-10-17T03:57:18;8.27;;;6.80;;
17854;SDS011;9053;53.358;6.382;2022-10-17T03:59:49;9.67;;;7.77;;
17854;SDS011;9053;53.358;6.382;2022-10-17T04:02:19;8.53;;;7.63;;
17854;SDS011;9053;53.358;6.382;2022-10-17T04:04:49;10.33;;;8.30;;
17854;SDS011;9053;53.358;6.382;2022-10-17T04:07:21;11.97;;;8.47;;
17854;SDS011;9053;53.358;6.382;2022-10-17T04:09:51;10.43;;;8.40;;
17854;SDS011;9053;53.358;6.382;2022-10-17T04:12:21;11.50;;;8.90;;
17854;SDS011;9053;53.358;6.382;2022-10-17T04:14:50;12.20;;;9.07;;
17854;SDS011;9053;53.358;6.382;2022-10-17T04:17:20;12.57;;;9.50;;
17854;SDS011;9053;53.358;6.382;2022-10-17T04:19:50;11.17;;;9.10;;
17854;SDS011;9053;53.358;6.382;2022-10-17T04:22:22;11.30;;;7.93;;
17854;SDS011;9053;53.358;6.382;2022-10-17T04:24:53;8.40;;;7.60;;
17854;SDS011;9053;53.358;6.382;2022-10-17T04:27:23;8.90;;;8.00;;
17854;SDS011;9053;53.358;6.382;2022-10-17T04:29:52;8.17;;;7.37;;
17854;SDS011;9053;53.358;6.382;2022-10-17T04:32:22;6.90;;;6.07;;
17854;SDS011;9053;53.358;6.382;2022-10-17T04:34:53;8.03;;;7.13;;
17854;SDS011;9053;53.358;6.382;2022-10-17T04:37:25;9.07;;;7.17;;
17854;SDS011;9053;53.358;6.382;2022-10-17T04:39:57;8.43;;;6.97;;
17854;SDS011;9053;53.358;6.382;2022-10-17T04:42:27;7.47;;;6.77;;
17854;SDS011;9053;53.358;6.382;2022-10-17T04:44:58;7.88;;;6.68;;
17854;SDS011;9053;53.358;6.382;2022-10-17T04:47:27;7.40;;;6.70;;
17854;SDS011;9053;53.358;6.382;2022-10-17T04:49:57;11.25;;;8.55;;
17854;SDS011;9053;53.358;6.382;2022-10-17T04:52:30;7.57;;;6.77;;
17854;SDS011;9053;53.358;6.382;2022-10-17T04:55:00;8.70;;;7.68;;
17854;SDS011;9053;53.358;6.382;2022-10-17T04:57:29;8.13;;;7.03;;
17854;SDS011;9053;53.358;6.382;2022-10-17T05:00:03;7.95;;;6.95;;
17854;SDS011;9053;53.358;6.382;2022-10-17T05:02:34;7.78;;;6.95;;
17854;SDS011;9053;53.358;6.382;2022-10-17T05:05:05;9.77;;;8.32;;
17854;SDS011;9053;53.358;6.382;2022-10-17T05:07:40;11.52;;;10.15;;
17854;SDS011;9053;53.358;6.382;2022-10-17T05:10:10;8.40;;;7.40;;
17854;SDS011;9053;53.358;6.382;2022-10-17T05:12:40;9.87;;;8.20;;
17854;SDS011;9053;53.358;6.382;2022-10-17T05:15:10;14.02;;;10.05;;
17854;SDS011;9053;53.358;6.382;2022-10-17T05:17:39;9.30;;;8.30;;
17854;SDS011;9053;53.358;6.382;2022-10-17T05:20:10;8.70;;;7.90;;
17854;SDS011;9053;53.358;6.382;2022-10-17T05:22:42;8.90;;;8.00;;
17854;SDS011;9053;53.358;6.382;2022-10-17T05:25:12;9.20;;;8.10;;
17854;SDS011;9053;53.358;6.382;2022-10-17T05:27:42;8.88;;;7.53;;
17854;SDS011;9053;53.358;6.382;2022-10-17T05:30:12;8.43;;;7.63;;
17854;SDS011;9053;53.358;6.382;2022-10-17T05:32:42;8.70;;;7.80;;
17854;SDS011;9053;53.358;6.382;2022-10-17T05:35:12;10.10;;;8.05;;
17854;SDS011;9053;53.358;6.382;2022-10-17T05:37:44;12.63;;;9.25;;
17854;SDS011;9053;53.358;6.382;2022-10-17T05:40:14;11.90;;;8.68;;
17854;SDS011;9053;53.358;6.382;2022-10-17T05:42:44;13.43;;;10.18;;
17854;SDS011;9053;53.358;6.382;2022-10-17T05:45:15;9.40;;;8.48;;
17854;SDS011;9053;53.358;6.382;2022-10-17T05:47:44;8.60;;;7.72;;
17854;SDS011;9053;53.358;6.382;2022-10-17T05:50:14;9.40;;;8.27;;
17854;SDS011;9053;53.358;6.382;2022-10-17T05:52:49;9.02;;;8.13;;
17854;SDS011;9053;53.358;6.382;2022-10-17T05:55:21;9.00;;;8.07;;
17854;SDS011;9053;53.358;6.382;2022-10-17T05:57:51;9.85;;;8.55;;
17854;SDS011;9053;53.358;6.382;2022-10-17T06:00:21;9.73;;;8.75;;
17854;SDS011;9053;53.358;6.382;2022-10-17T06:02:51;10.82;;;8.45;;
17854;SDS011;9053;53.358;6.382;2022-10-17T06:05:21;10.67;;;8.57;;
17854;SDS011;9053;53.358;6.382;2022-10-17T06:07:53;10.60;;;8.73;;
17854;SDS011;9053;53.358;6.382;2022-10-17T06:10:27;9.63;;;8.47;;
17854;SDS011;9053;53.358;6.382;2022-10-17T06:12:57;14.45;;;11.85;;
17854;SDS011;9053;53.358;6.382;2022-10-17T06:15:27;11.02;;;9.80;;
17854;SDS011;9053;53.358;6.382;2022-10-17T06:17:56;9.50;;;8.50;;
17854;SDS011;9053;53.358;6.382;2022-10-17T06:20:26;11.45;;;9.07;;
17854;SDS011;9053;53.358;6.382;2022-10-17T06:22:58;10.45;;;9.30;;
17854;SDS011;9053;53.358;6.382;2022-10-17T06:25:29;10.23;;;8.70;;
17854;SDS011;9053;53.358;6.382;2022-10-17T06:27:59;10.18;;;9.10;;
17854;SDS011;9053;53.358;6.382;2022-10-17T06:30:29;11.23;;;9.63;;
17854;SDS011;9053;53.358;6.382;2022-10-17T06:32:58;9.68;;;8.68;;
17854;SDS011;9053;53.358;6.382;2022-10-17T06:35:28;9.95;;;8.70;;
17854;SDS011;9053;53.358;6.382;2022-10-17T06:38:01;11.32;;;9.48;;
17854;SDS011;9053;53.358;6.382;2022-10-17T06:40:31;9.18;;;8.18;;
17854;SDS011;9053;53.358;6.382;2022-10-17T06:43:01;9.68;;;8.60;;
17854;SDS011;9053;53.358;6.382;2022-10-17T06:45:31;11.73;;;10.43;;
17854;SDS011;9053;53.358;6.382;2022-10-17T06:48:01;11.82;;;9.98;;
17854;SDS011;9053;53.358;6.382;2022-10-17T06:50:31;10.23;;;9.20;;
17854;SDS011;9053;53.358;6.382;2022-10-17T06:53:03;9.77;;;8.77;;
17854;SDS011;9053;53.358;6.382;2022-10-17T06:55:33;10.98;;;9.43;;
17854;SDS011;9053;53.358;6.382;2022-10-17T06:58:03;10.18;;;9.18;;
17854;SDS011;9053;53.358;6.382;2022-10-17T07:00:33;9.52;;;8.55;;
17854;SDS011;9053;53.358;6.382;2022-10-17T07:03:03;11.35;;;9.43;;
17854;SDS011;9053;53.358;6.382;2022-10-17T07:05:32;17.10;;;10.75;;
17854;SDS011;9053;53.358;6.382;2022-10-17T07:08:05;9.95;;;8.52;;
17854;SDS011;9053;53.358;6.382;2022-10-17T07:10:36;11.20;;;9.48;;
17854;SDS011;9053;53.358;6.382;2022-10-17T07:13:06;14.20;;;10.57;;
17854;SDS011;9053;53.358;6.382;2022-10-17T07:15:36;12.20;;;9.88;;
17854;SDS011;9053;53.358;6.382;2022-10-17T07:18:06;10.43;;;9.00;;
17854;SDS011;9053;53.358;6.382;2022-10-17T07:20:36;14.48;;;10.60;;
17854;SDS011;9053;53.358;6.382;2022-10-17T07:23:09;13.77;;;10.57;;
17854;SDS011;9053;53.358;6.382;2022-10-17T07:25:38;12.95;;;10.82;;
17854;SDS011;9053;53.358;6.382;2022-10-17T07:28:08;10.82;;;9.23;;
17854;SDS011;9053;53.358;6.382;2022-10-17T07:30:38;10.23;;;8.98;;
17854;SDS011;9053;53.358;6.382;2022-10-17T07:33:08;9.82;;;8.82;;
17854;SDS011;9053;53.358;6.382;2022-10-17T07:35:38;9.95;;;8.95;;
17854;SDS011;9053;53.358;6.382;2022-10-17T07:38:11;9.45;;;8.32;;
17854;SDS011;9053;53.358;6.382;2022-10-17T07:40:41;10.60;;;9.02;;
17854;SDS011;9053;53.358;6.382;2022-10-17T07:43:11;10.07;;;9.07;;
17854;SDS011;9053;53.358;6.382;2022-10-17T07:45:41;10.57;;;8.30;;
17854;SDS011;9053;53.358;6.382;2022-10-17T07:48:10;11.15;;;9.93;;
17854;SDS011;9053;53.358;6.382;2022-10-17T07:50:40;9.45;;;8.45;;
17854;SDS011;9053;53.358;6.382;2022-10-17T07:53:13;9.55;;;8.55;;
17854;SDS011;9053;53.358;6.382;2022-10-17T07:55:43;11.68;;;9.55;;
17854;SDS011;9053;53.358;6.382;2022-10-17T07:58:15;10.82;;;9.10;;
17854;SDS011;9053;53.358;6.382;2022-10-17T08:00:45;10.43;;;8.60;;
17854;SDS011;9053;53.358;6.382;2022-10-17T08:03:16;12.85;;;9.65;;
17854;SDS011;9053;53.358;6.382;2022-10-17T08:05:46;9.93;;;8.27;;
17854;SDS011;9053;53.358;6.382;2022-10-17T08:08:19;11.75;;;7.95;;
17854;SDS011;9053;53.358;6.382;2022-10-17T08:10:48;10.25;;;8.77;;
17854;SDS011;9053;53.358;6.382;2022-10-17T08:13:18;11.60;;;9.20;;
17854;SDS011;9053;53.358;6.382;2022-10-17T08:15:48;10.85;;;9.75;;
17854;SDS011;9053;53.358;6.382;2022-10-17T08:18:18;12.68;;;9.68;;
17854;SDS011;9053;53.358;6.382;2022-10-17T08:20:48;10.45;;;8.60;;
17854;SDS011;9053;53.358;6.382;2022-10-17T08:23:27;10.82;;;8.93;;
17854;SDS011;9053;53.358;6.382;2022-10-17T08:25:57;9.68;;;8.20;;
17854;SDS011;9053;53.358;6.382;2022-10-17T08:28:28;10.40;;;8.32;;
17854;SDS011;9053;53.358;6.382;2022-10-17T08:31:02;9.02;;;8.10;;
17854;SDS011;9053;53.358;6.382;2022-10-17T08:33:32;9.35;;;7.88;;
17854;SDS011;9053;53.358;6.382;2022-10-17T08:36:03;10.48;;;8.45;;
17854;SDS011;9053;53.358;6.382;2022-10-17T08:38:37;11.40;;;8.98;;
17854;SDS011;9053;53.358;6.382;2022-10-17T08:41:14;9.20;;;7.88;;
17854;SDS011;9053;53.358;6.382;2022-10-17T08:44:00;9.27;;;8.00;;
17854;SDS011;9053;53.358;6.382;2022-10-17T08:46:38;10.27;;;9.18;;
17854;SDS011;9053;53.358;6.382;2022-10-17T08:49:12;9.15;;;8.13;;
17854;SDS011;9053;53.358;6.382;2022-10-17T08:51:48;10.82;;;7.90;;
17854;SDS011;9053;53.358;6.382;2022-10-17T08:54:29;10.73;;;8.68;;
17854;SDS011;9053;53.358;6.382;2022-10-17T08:57:07;7.78;;;6.97;;
17854;SDS011;9053;53.358;6.382;2022-10-17T08:59:41;9.25;;;7.93;;
17854;SDS011;9053;53.358;6.382;2022-10-17T09:02:17;13.48;;;8.60;;
17854;SDS011;9053;53.358;6.382;2022-10-17T09:05:01;10.07;;;9.07;;
17854;SDS011;9053;53.358;6.382;2022-10-17T09:07:54;9.73;;;8.30;;
17854;SDS011;9053;53.358;6.382;2022-10-17T09:10:35;10.30;;;8.73;;
17854;SDS011;9053;53.358;6.382;2022-10-17T09:13:18;10.82;;;8.43;;
17854;SDS011;9053;53.358;6.382;2022-10-17T09:19:00;12.15;;;8.75;;
17854;SDS011;9053;53.358;6.382;2022-10-17T09:21:38;10.90;;;8.07;;
17854;SDS011;9053;53.358;6.382;2022-10-17T09:24:12;15.52;;;9.07;;
17854;SDS011;9053;53.358;6.382;2022-10-17T09:26:48;11.77;;;9.63;;
17854;SDS011;9053;53.358;6.382;2022-10-17T09:29:20;11.45;;;9.18;;
17854;SDS011;9053;53.358;6.382;2022-10-17T09:32:02;11.73;;;9.32;;
17854;SDS011;9053;53.358;6.382;2022-10-17T09:34:39;13.68;;;9.15;;
17854;SDS011;9053;53.358;6.382;2022-10-17T09:37:10;12.60;;;9.43;;
17854;SDS011;9053;53.358;6.382;2022-10-17T09:39:43;11.75;;;8.93;;
17854;SDS011;9053;53.358;6.382;2022-10-17T09:42:17;12.40;;;10.05;;
17854;SDS011;9053;53.358;6.382;2022-10-17T09:44:51;12.07;;;9.70;;
17854;SDS011;9053;53.358;6.382;2022-10-17T09:47:27;13.25;;;9.60;;
17854;SDS011;9053;53.358;6.382;2022-10-17T09:50:00;15.18;;;10.32;;
17854;SDS011;9053;53.358;6.382;2022-10-17T09:52:32;13.30;;;10.02;;
17854;SDS011;9053;53.358;6.382;2022-10-17T09:55:04;15.05;;;9.98;;
17854;SDS011;9053;53.358;6.382;2022-10-17T09:57:53;11.35;;;9.20;;
17854;SDS011;9053;53.358;6.382;2022-10-17T10:00:25;14.43;;;10.30;;
17854;SDS011;9053;53.358;6.382;2022-10-17T10:03:09;13.25;;;10.35;;
17854;SDS011;9053;53.358;6.382;2022-10-17T10:05:57;13.07;;;9.23;;
17854;SDS011;9053;53.358;6.382;2022-10-17T10:08:32;11.88;;;9.60;;
17854;SDS011;9053;53.358;6.382;2022-10-17T10:11:04;16.45;;;10.38;;
17854;SDS011;9053;53.358;6.382;2022-10-17T10:13:42;12.90;;;9.48;;
17854;SDS011;9053;53.358;6.382;2022-10-17T10:16:15;13.10;;;9.95;;
17854;SDS011;9053;53.358;6.382;2022-10-17T10:18:51;12.88;;;8.85;;
17854;SDS011;9053;53.358;6.382;2022-10-17T10:21:22;11.23;;;9.32;;
17854;SDS011;9053;53.358;6.382;2022-10-17T10:24:02;13.07;;;10.63;;
17854;SDS011;9053;53.358;6.382;2022-10-17T10:26:34;13.48;;;10.27;;
17854;SDS011;9053;53.358;6.382;2022-10-17T10:29:20;11.82;;;9.48;;
17854;SDS011;9053;53.358;6.382;2022-10-17T10:31:54;12.10;;;9.20;;
17854;SDS011;9053;53.358;6.382;2022-10-17T10:34:25;10.38;;;8.20;;
17854;SDS011;9053;53.358;6.382;2022-10-17T10:36:59;9.30;;;8.15;;
17854;SDS011;9053;53.358;6.382;2022-10-17T10:39:35;9.43;;;8.48;;
17854;SDS011;9053;53.358;6.382;2022-10-17T10:42:17;9.30;;;8.10;;
17854;SDS011;9053;53.358;6.382;2022-10-17T10:44:54;11.55;;;9.05;;
17854;SDS011;9053;53.358;6.382;2022-10-17T10:47:27;12.77;;;8.57;;
17854;SDS011;9053;53.358;6.382;2022-10-17T10:53:07;11.20;;;9.18;;
17854;SDS011;9053;53.358;6.382;2022-10-17T10:55:45;9.48;;;7.97;;
17854;SDS011;9053;53.358;6.382;2022-10-17T10:58:25;9.85;;;7.75;;
17854;SDS011;9053;53.358;6.382;2022-10-17T11:01:16;11.02;;;8.10;;
17854;SDS011;9053;53.358;6.382;2022-10-17T11:04:02;10.07;;;7.88;;
17854;SDS011;9053;53.358;6.382;2022-10-17T11:06:38;9.27;;;7.85;;
17854;SDS011;9053;53.358;6.382;2022-10-17T11:09:15;11.45;;;8.63;;
17854;SDS011;9053;53.358;6.382;2022-10-17T11:11:59;9.57;;;8.43;;
17854;SDS011;9053;53.358;6.382;2022-10-17T11:14:36;10.07;;;9.07;;
17854;SDS011;9053;53.358;6.382;2022-10-17T11:17:14;9.32;;;7.35;;
17854;SDS011;9053;53.358;6.382;2022-10-17T11:19:54;9.85;;;8.65;;
17854;SDS011;9053;53.358;6.382;2022-10-17T11:22:30;8.30;;;7.20;;
17854;SDS011;9053;53.358;6.382;2022-10-17T11:25:03;10.20;;;7.93;;
17854;SDS011;9053;53.358;6.382;2022-10-17T11:27:38;11.20;;;8.98;;
17854;SDS011;9053;53.358;6.382;2022-10-17T11:30:10;10.38;;;7.90;;
17854;SDS011;9053;53.358;6.382;2022-10-17T11:32:45;8.93;;;7.70;;
17854;SDS011;9053;53.358;6.382;2022-10-17T11:35:20;10.45;;;9.13;;
17854;SDS011;9053;53.358;6.382;2022-10-17T11:38:01;10.77;;;8.75;;
17854;SDS011;9053;53.358;6.382;2022-10-17T11:40:37;9.18;;;8.10;;
17854;SDS011;9053;53.358;6.382;2022-10-17T11:43:11;12.43;;;8.85;;
17854;SDS011;9053;53.358;6.382;2022-10-17T11:45:47;8.88;;;7.85;;
17854;SDS011;9053;53.358;6.382;2022-10-17T11:48:27;10.65;;;8.30;;
17854;SDS011;9053;53.358;6.382;2022-10-17T11:51:03;11.13;;;9.20;;
17854;SDS011;9053;53.358;6.382;2022-10-17T11:53:58;11.40;;;8.48;;
17854;SDS011;9053;53.358;6.382;2022-10-17T11:56:38;10.18;;;8.13;;
17854;SDS011;9053;53.358;6.382;2022-10-17T11:59:19;11.82;;;9.18;;
17854;SDS011;9053;53.358;6.382;2022-10-17T12:02:04;10.82;;;8.82;;
17854;SDS011;9053;53.358;6.382;2022-10-17T12:04:44;9.40;;;8.15;;
17854;SDS011;9053;53.358;6.382;2022-10-17T12:07:21;10.13;;;8.63;;
17854;SDS011;9053;53.358;6.382;2022-10-17T12:10:00;10.45;;;8.45;;
17854;SDS011;9053;53.358;6.382;2022-10-17T12:12:44;10.13;;;8.23;;
17854;SDS011;9053;53.358;6.382;2022-10-17T12:18:14;9.35;;;8.32;;
17854;SDS011;9053;53.358;6.382;2022-10-17T12:20:50;8.38;;;7.57;;
17854;SDS011;9053;53.358;6.382;2022-10-17T12:23:25;10.52;;;7.25;;
17854;SDS011;9053;53.358;6.382;2022-10-17T12:25:57;8.57;;;7.20;;
17854;SDS011;9053;53.358;6.382;2022-10-17T12:28:30;6.50;;;5.90;;
17854;SDS011;9053;53.358;6.382;2022-10-17T12:31:02;7.80;;;6.93;;
17854;SDS011;9053;53.358;6.382;2022-10-17T12:33:36;8.90;;;6.88;;
17854;SDS011;9053;53.358;6.382;2022-10-17T12:42:28;8.65;;;6.40;;
17854;SDS011;9053;53.358;6.382;2022-10-17T12:51:21;10.18;;;7.38;;
17854;SDS011;9053;53.358;6.382;2022-10-17T12:54:10;7.82;;;6.45;;
17854;SDS011;9053;53.358;6.382;2022-10-17T12:56:43;8.02;;;6.65;;
17854;SDS011;9053;53.358;6.382;2022-10-17T12:59:17;9.23;;;7.43;;
17854;SDS011;9053;53.358;6.382;2022-10-17T13:01:51;8.45;;;7.15;;
17854;SDS011;9053;53.358;6.382;2022-10-17T13:04:30;7.22;;;6.30;;
17854;SDS011;9053;53.358;6.382;2022-10-17T13:07:04;8.55;;;7.18;;
17854;SDS011;9053;53.358;6.382;2022-10-17T13:09:37;7.50;;;6.65;;
17854;SDS011;9053;53.358;6.382;2022-10-17T13:12:12;9.50;;;7.20;;
17854;SDS011;9053;53.358;6.382;2022-10-17T13:14:46;7.90;;;6.60;;
17854;SDS011;9053;53.358;6.382;2022-10-17T13:17:23;8.65;;;6.57;;
17854;SDS011;9053;53.358;6.382;2022-10-17T13:19:55;7.32;;;5.20;;
17854;SDS011;9053;53.358;6.382;2022-10-17T13:22:26;7.88;;;5.13;;
17854;SDS011;9053;53.358;6.382;2022-10-17T13:25:12;6.28;;;4.25;;
17854;SDS011;9053;53.358;6.382;2022-10-17T13:27:44;5.70;;;3.38;;
17854;SDS011;9053;53.358;6.382;2022-10-17T13:30:24;5.60;;;3.55;;
17854;SDS011;9053;53.358;6.382;2022-10-17T13:32:57;5.88;;;3.78;;
17854;SDS011;9053;53.358;6.382;2022-10-17T13:35:29;5.55;;;3.80;;
17854;SDS011;9053;53.358;6.382;2022-10-17T13:38:26;5.93;;;4.90;;
17854;SDS011;9053;53.358;6.382;2022-10-17T13:41:08;7.78;;;5.28;;
17854;SDS011;9053;53.358;6.382;2022-10-17T13:44:00;9.18;;;5.40;;
17854;SDS011;9053;53.358;6.382;2022-10-17T13:46:32;7.00;;;4.95;;
17854;SDS011;9053;53.358;6.382;2022-10-17T13:49:09;6.55;;;5.47;;
17854;SDS011;9053;53.358;6.382;2022-10-17T13:51:43;6.07;;;5.40;;
17854;SDS011;9053;53.358;6.382;2022-10-17T13:54:31;7.47;;;5.60;;
17854;SDS011;9053;53.358;6.382;2022-10-17T13:57:13;6.43;;;5.45;;
17854;SDS011;9053;53.358;6.382;2022-10-17T13:59:47;6.90;;;6.05;;
17854;SDS011;9053;53.358;6.382;2022-10-17T14:02:19;7.32;;;5.75;;
17854;SDS011;9053;53.358;6.382;2022-10-17T14:05:01;5.55;;;4.95;;
17854;SDS011;9053;53.358;6.382;2022-10-17T14:07:49;5.50;;;4.72;;
17854;SDS011;9053;53.358;6.382;2022-10-17T14:10:41;6.28;;;4.57;;
17854;SDS011;9053;53.358;6.382;2022-10-17T14:13:21;5.75;;;4.95;;
17854;SDS011;9053;53.358;6.382;2022-10-17T14:15:52;7.40;;;4.85;;
17854;SDS011;9053;53.358;6.382;2022-10-17T14:18:25;6.65;;;4.70;;
17854;SDS011;9053;53.358;6.382;2022-10-17T14:21:02;5.88;;;4.38;;
17854;SDS011;9053;53.358;6.382;2022-10-17T14:26:48;6.75;;;3.90;;
17854;SDS011;9053;53.358;6.382;2022-10-17T14:29:23;5.45;;;4.22;;
17854;SDS011;9053;53.358;6.382;2022-10-17T14:31:56;6.80;;;4.40;;
17854;SDS011;9053;53.358;6.382;2022-10-17T14:34:29;6.70;;;4.10;;
17854;SDS011;9053;53.358;6.382;2022-10-17T14:37:02;6.43;;;4.50;;
17854;SDS011;9053;53.358;6.382;2022-10-17T14:39:38;5.22;;;3.78;;
17854;SDS011;9053;53.358;6.382;2022-10-17T14:42:15;5.18;;;4.18;;
17854;SDS011;9053;53.358;6.382;2022-10-17T14:44:51;4.63;;;4.07;;
17854;SDS011;9053;53.358;6.382;2022-10-17T14:47:23;5.53;;;4.07;;
17854;SDS011;9053;53.358;6.382;2022-10-17T14:50:19;6.20;;;3.95;;
17854;SDS011;9053;53.358;6.382;2022-10-17T14:52:57;5.57;;;3.85;;
17854;SDS011;9053;53.358;6.382;2022-10-17T14:55:29;5.60;;;3.45;;
17854;SDS011;9053;53.358;6.382;2022-10-17T14:58:00;4.10;;;3.70;;
17854;SDS011;9053;53.358;6.382;2022-10-17T15:00:46;4.93;;;3.13;;
17854;SDS011;9053;53.358;6.382;2022-10-17T15:03:16;6.07;;;3.83;;
17854;SDS011;9053;53.358;6.382;2022-10-17T15:05:46;4.97;;;3.88;;
17854;SDS011;9053;53.358;6.382;2022-10-17T15:08:18;5.50;;;3.58;;
17854;SDS011;9053;53.358;6.382;2022-10-17T15:10:50;4.35;;;3.55;;
17854;SDS011;9053;53.358;6.382;2022-10-17T15:13:20;4.43;;;3.65;;
17854;SDS011;9053;53.358;6.382;2022-10-17T15:15:59;5.20;;;3.85;;
17854;SDS011;9053;53.358;6.382;2022-10-17T15:18:29;4.15;;;3.30;;
17854;SDS011;9053;53.358;6.382;2022-10-17T15:20:59;5.75;;;3.90;;
17854;SDS011;9053;53.358;6.382;2022-10-17T15:23:42;7.40;;;4.13;;
17854;SDS011;9053;53.358;6.382;2022-10-17T15:26:13;5.43;;;3.90;;
17854;SDS011;9053;53.358;6.382;2022-10-17T15:28:45;4.90;;;3.40;;
17854;SDS011;9053;53.358;6.382;2022-10-17T15:31:19;4.88;;;3.25;;
17854;SDS011;9053;53.358;6.382;2022-10-17T15:33:50;4.38;;;3.45;;
17854;SDS011;9053;53.358;6.382;2022-10-17T15:36:21;3.80;;;3.30;;
17854;SDS011;9053;53.358;6.382;2022-10-17T15:38:54;4.25;;;2.97;;
17854;SDS011;9053;53.358;6.382;2022-10-17T15:41:26;5.72;;;3.40;;
17854;SDS011;9053;53.358;6.382;2022-10-17T15:43:57;4.03;;;3.38;;
17854;SDS011;9053;53.358;6.382;2022-10-17T15:46:31;6.68;;;3.58;;
17854;SDS011;9053;53.358;6.382;2022-10-17T15:49:03;5.45;;;3.83;;
17854;SDS011;9053;53.358;6.382;2022-10-17T15:51:35;3.50;;;3.20;;
17854;SDS011;9053;53.358;6.382;2022-10-17T15:54:05;5.05;;;3.53;;
17854;SDS011;9053;53.358;6.382;2022-10-17T15:56:36;5.55;;;3.50;;
17854;SDS011;9053;53.358;6.382;2022-10-17T15:59:10;5.13;;;3.33;;
17854;SDS011;9053;53.358;6.382;2022-10-17T16:01:46;4.22;;;3.47;;
17854;SDS011;9053;53.358;6.382;2022-10-17T16:04:16;4.80;;;4.30;;
17854;SDS011;9053;53.358;6.382;2022-10-17T16:06:46;4.88;;;3.47;;
17854;SDS011;9053;53.358;6.382;2022-10-17T16:09:16;5.35;;;3.55;;
17854;SDS011;9053;53.358;6.382;2022-10-17T16:11:46;6.07;;;3.55;;
17854;SDS011;9053;53.358;6.382;2022-10-17T16:14:16;5.60;;;4.28;;